Flight Track Log - Related Links

Times and Time Zones

All times are in EDT time to prevent confusion due to time zone crossing. See the N141K flight status page for this flight to view local times or setup timezone preferences in your user account.

Time Position Orientation Groundspeed Altitude Reporting Facility
EDT Latitude Longitude Course Direction KTS MPH feet Rate Location/Type
Sat 01:19:52 PM 42.3550 -71.3310 155° Southeast 194 223 3,000  Level FlightAware ADS-B
Sat 01:20:07 PM 42.3420 -71.3220 153° Southeast 189 217 3,100 150 Climbing FlightAware ADS-B
Sat 01:20:32 PM 42.3240 -71.3080 150° Southeast 192 221 3,100  Level FlightAware ADS-B
Sat 01:21:02 PM 42.2980 -71.2930 157° South 190 219 3,100  Level FlightAware ADS-B
Sat 01:21:12 PM 42.2920 -71.2900 160° South 186 214 3,100  Level FlightAware ADS-B
Sat 01:21:37 PM 42.2720 -71.2780 156° South 187 215 3,100  Level FlightAware ADS-B
Sat 01:22:07 PM 42.2480 -71.2630 155° Southeast 188 216 3,100  Level FlightAware ADS-B
Sat 01:22:37 PM 42.2230 -71.2470 155° Southeast 192 221 3,100  Level FlightAware ADS-B
Sat 01:23:02 PM 42.2060 -71.2290 142° Southeast 210 242 3,100  Level FlightAware ADS-B
Sat 01:23:22 PM 42.1940 -71.2070 126° Southeast 208 239 3,100  Level FlightAware ADS-B
Sat 01:23:37 PM 42.1860 -71.1950 132° Southeast 207 238 3,100  Level FlightAware ADS-B
Sat 01:23:52 PM 42.1770 -71.1780 126° Southeast 205 236 3,100  Level FlightAware ADS-B
Sat 01:24:17 PM 42.1610 -71.1530 131° Southeast 205 236 3,100  Level FlightAware ADS-B
Sat 01:24:42 PM 42.1490 -71.1310 126° Southeast 203 234 3,100  Level FlightAware ADS-B
Sat 01:24:57 PM 42.1380 -71.1130 129° Southeast 203 234 3,100  Level FlightAware ADS-B
Sat 01:25:27 PM 42.1210 -71.0850 129° Southeast 202 232 3,100  Level FlightAware ADS-B
Sat 01:25:52 PM 42.1060 -71.0590 128° Southeast 202 232 3,100  Level FlightAware ADS-B
Sat 01:26:17 PM 42.0910 -71.0350 130° Southeast 202 232 3,100 -300 Level FlightAware ADS-B
Sat 01:26:32 PM 42.0810 -71.0180 128° Southeast 207 238 2,900 -500 Descending FlightAware ADS-B
Sat 01:27:17 PM 42.0570 -70.9760 128° Southeast 213 245 2,600 -659 Descending FlightAware ADS-B
Sat 01:27:54 PM 42.0333 -70.9333 128° Southeast 216 249 2,000 -383 Descending KA90
Sat 01:28:51 PM 42.0000 -70.8833 132° Southeast 193 222 2,000  Level KA90

Login

Don't have an account? Register now (free) for customized features, flight alerts, and more!